Flight Track Log - Related Links

Times and Time Zones

All times are in EDT time to prevent confusion due to time zone crossing. See the RPA4886 flight status page for this flight to view local times or setup timezone preferences in your user account.

Time Position Orientation Groundspeed Altitude Reporting Facility
EDT Latitude Longitude Course Direction KTS MPH feet Rate Location/Type
Tue 05:42:01 PM 39.0167 -77.4500 North 213 245 3,200  Level Potomac TRACON
Tue 05:43:00 PM 39.1887 -77.4500 North  Level FlightAware Approximate
Tue 05:44:00 PM 39.2738 -77.4500 North  Level FlightAware Approximate
Tue 05:44:12 PM 39.1489 -77.4706 353° North 241 277 6,200  Level Washington Center
Tue 05:45:00 PM 39.3589 -77.4500 North  Level FlightAware Approximate
Tue 05:45:13 PM 39.2197 -77.4775 356° North 241 277 8,100  Level Washington Center
Tue 05:46:00 PM 39.4440 -77.4500 North  Level FlightAware Approximate
Tue 05:46:10 PM 39.2864 -77.4819 357° North 246 283 10,200  Level Washington Center
Tue 05:47:00 PM 39.5216 -77.4500 North  Level FlightAware Approximate
Tue 05:47:11 PM 39.3531 -77.4839 359° North 246 283 12,200  Level Washington Center
Tue 05:48:12 PM 39.4219 -77.4747 North 241 277 14,100 1,704 Climbing Washington Center
Tue 05:49:53 PM 39.5397 -77.4667 North 236 272 16,800 1,370 Climbing New York Center
Tue 05:50:54 PM 39.5944 -77.4583 North 236 272 17,800 1,091 Climbing New York Center
Tue 05:51:54 PM 39.6636 -77.4542 North 231 266 19,000 1,091 Climbing New York Center
Tue 05:52:55 PM 39.7261 -77.4547 360° North 231 266 20,000 1,041 Climbing New York Center
Tue 05:53:55 PM 39.7928 -77.4528 North 231 266 21,100 1,008 Climbing New York Center
Tue 05:54:54 PM 39.8556 -77.4508 North 231 266 22,000 958 Climbing New York Center
Tue 05:55:54 PM 39.9161 -77.4483 North 226 260 23,000 893 Climbing New York Center
Tue 05:56:55 PM 39.9789 -77.4464 North 221 254 23,800 793 Climbing New York Center
Tue 05:57:55 PM 40.0378 -77.4003 31° Northeast 221 254 24,600 610 Climbing New York Center
Tue 05:58:53 PM 40.0928 -77.3486 36° Northeast 231 266 25,000 202 Climbing New York Center
Tue 05:59:54 PM 40.1517 -77.3025 31° Northeast 256 295 25,000  Level New York Center
Tue 06:00:55 PM 40.2153 -77.2458 34° Northeast 262 302 25,000  Level New York Center
Tue 06:01:53 PM 40.2831 -77.1869 34° Northeast 281 323 25,000  Level New York Center
Tue 06:02:53 PM 40.3486 -77.1303 33° Northeast 286 329 25,000  Level New York Center
Tue 06:03:54 PM 40.4183 -77.0742 31° Northeast 291 335 25,000  Level New York Center
Tue 06:04:53 PM 40.4842 -77.0147 34° Northeast 291 335 25,000  Level New York Center
Tue 06:05:53 PM 40.5539 -76.9553 33° Northeast 296 341 25,000  Level New York Center
Tue 06:06:53 PM 40.6214 -76.8986 33° Northeast 296 341 25,000  Level New York Center
Tue 06:07:53 PM 40.6892 -76.8361 35° Northeast 296 341 25,000  Level New York Center
Tue 06:08:54 PM 40.7611 -76.7767 32° Northeast 296 341 25,000  Level New York Center
Tue 06:09:55 PM 40.8322 -76.7308 26° Northeast 291 335 25,000  Level New York Center
Tue 06:10:53 PM 40.9067 -76.6989 18° North 278 320 25,000  Level New York Center
Tue 06:11:54 PM 40.9792 -76.6667 19° North 278 320 25,000  Level New York Center
Tue 06:12:54 PM 41.0536 -76.6347 18° North 273 314 25,000  Level New York Center
Tue 06:13:56 PM 41.1281 -76.6025 18° North 273 314 25,000  Level New York Center
Tue 06:14:53 PM 41.2028 -76.5675 19° North 273 314 25,000  Level New York Center
Tue 06:15:54 PM 41.2750 -76.5378 17° North 273 314 25,000  Level New York Center
Tue 06:16:53 PM 41.3494 -76.5056 18° North 273 314 25,000  Level New York Center
Tue 06:17:54 PM 41.4306 -76.4683 19° North 273 314 25,000  Level New York Center
Tue 06:18:54 PM 41.5050 -76.4358 18° North 273 314 25,000  Level New York Center
Tue 06:19:55 PM 41.5753 -76.4028 19° North 273 314 25,000  Level New York Center
Tue 06:20:53 PM 41.6519 -76.3678 19° North 273 314 25,000 -151 Level New York Center
Tue 06:21:54 PM 41.7264 -76.3350 18° North 273 314 24,700 -308 Descending New York Center
Tue 06:24:08 PM 41.8942 -76.2586 19° North 294 338 24,000 -216 Descending Boston Center
Tue 06:25:08 PM 41.9808 -76.2192 19° North 294 338 24,000  Level Boston Center
Tue 06:26:08 PM 42.0592 -76.1819 19° North 289 333 24,000  Level Boston Center
Tue 06:27:08 PM 42.1397 -76.1475 18° North 294 338 24,000  Level Boston Center
Tue 06:28:19 PM 42.1972 -76.0472 52° Northeast 301 346 24,000  Level Boston Center
Tue 06:29:20 PM 42.2436 -75.8900 68° East 335 386 24,000 -298 Level Boston Center
Tue 06:30:20 PM 42.2708 -75.7483 75° East 367 422 23,400 -950 Descending Boston Center
Tue 06:31:20 PM 42.2875 -75.6033 81° East 374 430 22,100 -1,400 Descending Boston Center
Tue 06:32:20 PM 42.3033 -75.4861 80° East 364 419 20,600 -1,550 Descending Boston Center
Tue 06:33:20 PM 42.3214 -75.3550 79° East 359 413 19,000 -1,550 Descending Boston Center
Tue 06:34:20 PM 42.3389 -75.2294 79° East 347 399 17,500 -1,550 Descending Boston Center
Tue 06:35:20 PM 42.3547 -75.0981 81° East 353 406 15,900 -1,550 Descending Boston Center
Tue 06:36:20 PM 42.3722 -74.9694 80° East 347 399 14,400 -1,550 Descending Boston Center
Tue 06:37:20 PM 42.3894 -74.8492 79° East 342 394 12,800 -1,650 Descending Boston Center
Tue 06:38:20 PM 42.4069 -74.7064 81° East 348 400 11,100 -831 Descending Boston Center
Tue 06:39:30 PM 42.4219 -74.5747 81° East 320 368 11,000 -59 Descending Boston Center
Tue 06:40:01 PM 42.4317 -74.5106 78° East 319 367 11,000  Level Boston Center
Tue 06:40:20 PM 42.4364 -74.4711 81° East 322 371 11,000 -532 Level Boston Center
Tue 06:41:20 PM 42.4631 -74.3764 69° East 302 348 10,300 -1,000 Descending Boston Center
Tue 06:42:02 PM 42.4831 -74.3011 70° East 287 330 9,300 -1,500 Descending Boston Center
Tue 06:42:20 PM 42.4900 -74.2675 74° East 282 325 8,800 -1,636 Descending Boston Center
Tue 06:42:57 PM 42.5097 -74.2061 66° East 278 320 7,800 -1,400 Descending Boston Center
Tue 06:43:20 PM 42.5183 -74.1781 67° East 276 318 7,400 -1,500 Descending Boston Center
Tue 06:43:57 PM 42.5381 -74.1139 67° East 268 308 6,300 -1,600 Descending Boston Center
Tue 06:44:20 PM 42.5492 -74.0775 67° East 266 306 5,800 -1,475 Descending Boston Center
Tue 06:44:58 PM 42.5664 -74.0244 66° East 257 296 4,800 -1,400 Descending Boston Center
Tue 06:45:20 PM 42.5731 -73.9964 72° East 257 296 4,400 -1,475 Descending Boston Center
Tue 06:45:59 PM 42.5906 -73.9403 67° East 238 274 3,300 -1,500 Descending Boston Center
Tue 06:46:20 PM 42.5972 -73.9181 68° East 237 273 2,900 -1,143 Descending Boston Center

Login

Don't have an account? Register now (free) for customized features, flight alerts, and more!